createdAt,value
2022-12-18T00:00:32.148Z,102012.75
2022-12-18T00:03:01.039Z,101990.78
2022-12-18T00:05:30.734Z,101985.81
2022-12-18T00:07:59.683Z,101987.59
2022-12-18T00:10:31.423Z,102019.28
2022-12-18T00:13:02.567Z,101937.75
2022-12-18T00:15:39.705Z,101995.09
2022-12-18T00:18:08.671Z,102000.47
2022-12-18T00:20:41.853Z,102017.72
2022-12-18T00:23:10.756Z,102027.84
2022-12-18T00:25:40.067Z,102040.66
2022-12-18T00:28:09.055Z,102033.81
2022-12-18T00:30:37.865Z,102028.34
2022-12-18T00:33:06.676Z,102026.50
2022-12-18T00:35:36.026Z,102039.56
2022-12-18T00:38:05.192Z,102024.44
2022-12-18T00:40:33.873Z,102028.38
2022-12-18T00:43:02.860Z,101992.28
2022-12-18T00:45:32.890Z,102043.78
2022-12-18T00:48:01.918Z,102054.66
2022-12-18T00:50:31.157Z,102032.94
2022-12-18T00:53:02.692Z,102058.75
2022-12-18T00:55:31.893Z,102077.72
2022-12-18T00:58:01.335Z,102077.88
2022-12-18T01:00:30.669Z,102074.91
2022-12-18T01:02:59.426Z,102060.56
2022-12-18T01:05:29.827Z,102048.09
2022-12-18T01:07:59.023Z,102072.25
2022-12-18T01:10:27.757Z,102066.91
2022-12-18T01:12:59.773Z,102054.50
2022-12-18T01:15:29.045Z,102064.72
2022-12-18T01:17:57.739Z,102078.66
2022-12-18T01:20:28.971Z,101980.69
2022-12-18T01:22:58.291Z,102085.97
2022-12-18T01:25:27.349Z,102052.31
2022-12-18T01:27:56.221Z,102064.03
2022-12-18T01:30:27.138Z,102065.06
2022-12-18T01:32:56.154Z,102057.19
2022-12-18T01:35:25.103Z,102051.22
2022-12-18T01:37:59.377Z,102090.97
2022-12-18T01:40:28.696Z,102064.25
2022-12-18T01:42:57.841Z,101838.94
2022-12-18T01:45:32.463Z,102070.88
2022-12-18T01:48:08.301Z,102072.34
2022-12-18T01:50:42.057Z,102107.66
2022-12-18T01:53:22.901Z,102098.47
2022-12-18T01:55:56.711Z,102052.22
2022-12-18T01:58:58.676Z,102110.06
2022-12-18T02:01:28.512Z,102076.75
2022-12-18T02:03:57.677Z,102113.06
2022-12-18T02:06:38.474Z,102090.53
2022-12-18T02:09:21.556Z,102090.88
2022-12-18T02:12:03.561Z,102123.66
2022-12-18T02:14:41.279Z,102119.50
2022-12-18T02:17:21.496Z,102134.63
2022-12-18T02:20:00.764Z,102094.44
2022-12-18T02:22:51.732Z,102130.00
2022-12-18T02:25:44.815Z,102132.19
2022-12-18T02:28:18.034Z,102108.63
2022-12-18T02:30:53.609Z,102138.56
2022-12-18T02:33:24.046Z,102121.97
2022-12-18T02:35:55.859Z,102134.72
2022-12-18T02:38:29.961Z,102133.50
2022-12-18T02:41:04.091Z,102133.19
2022-12-18T02:43:33.589Z,102111.28
2022-12-18T02:46:30.700Z,102130.31
2022-12-18T02:49:12.452Z,102136.53
2022-12-18T02:51:52.497Z,102139.56
2022-12-18T02:54:26.756Z,102172.22
2022-12-18T02:56:58.168Z,102162.56
2022-12-18T02:59:48.020Z,102157.41
2022-12-18T03:02:40.531Z,102176.25
2022-12-18T03:05:19.340Z,102186.22
2022-12-18T03:07:58.754Z,102156.56
2022-12-18T03:10:34.178Z,102187.41
2022-12-18T03:13:32.657Z,102183.69
2022-12-18T03:16:02.910Z,102192.75
2022-12-18T03:18:54.325Z,102132.97
2022-12-18T03:21:30.423Z,102179.72
2022-12-18T03:24:00.605Z,102157.03
2022-12-18T03:26:31.425Z,102158.06
2022-12-18T03:29:09.374Z,102174.41
2022-12-18T03:31:44.041Z,102204.78
2022-12-18T03:34:24.130Z,102178.06
2022-12-18T03:36:52.944Z,102182.38
2022-12-18T03:39:22.122Z,102208.78
2022-12-18T03:42:17.690Z,102206.28
2022-12-18T03:45:04.661Z,102208.94
2022-12-18T03:47:54.959Z,102211.75
2022-12-18T03:50:42.804Z,102206.06
2022-12-18T03:53:30.428Z,102186.19
2022-12-18T03:56:02.517Z,102193.00
2022-12-18T03:58:39.291Z,102195.84
2022-12-18T04:01:37.326Z,102185.72
2022-12-18T04:04:07.732Z,102184.06
2022-12-18T04:06:40.588Z,102194.59
2022-12-18T04:09:12.026Z,102192.38
2022-12-18T04:11:46.127Z,102173.09
2022-12-18T04:14:18.202Z,102215.06
2022-12-18T04:16:51.495Z,102235.13
2022-12-18T04:19:24.401Z,102194.75
2022-12-18T04:21:54.829Z,102214.91
2022-12-18T04:24:24.266Z,102206.84
2022-12-18T04:27:09.052Z,102233.22
2022-12-18T04:29:44.415Z,102134.97
2022-12-18T04:32:12.982Z,102238.50
2022-12-18T04:34:44.162Z,102200.50
2022-12-18T04:37:13.134Z,102221.50
2022-12-18T04:39:41.997Z,102131.03
2022-12-18T04:42:19.398Z,102231.78
2022-12-18T04:44:48.067Z,102148.63
2022-12-18T04:47:16.881Z,102237.19
2022-12-18T04:49:45.825Z,102229.81
2022-12-18T04:52:14.519Z,102238.25
2022-12-18T04:54:43.304Z,102240.72
2022-12-18T04:57:12.004Z,102241.00
2022-12-18T04:59:40.784Z,102248.31
2022-12-18T05:02:09.449Z,102251.25
2022-12-18T05:04:38.284Z,102251.09
2022-12-18T05:07:07.524Z,102250.50
2022-12-18T05:09:36.503Z,102249.22
2022-12-18T05:12:05.385Z,102252.31
2022-12-18T05:14:34.110Z,102248.16
2022-12-18T05:17:02.849Z,102239.03
2022-12-18T05:19:31.625Z,102250.63
2022-12-18T05:22:00.602Z,102268.22
2022-12-18T05:24:29.804Z,102258.47
2022-12-18T05:26:58.609Z,102245.53
2022-12-18T05:29:27.373Z,102268.16
2022-12-18T05:31:56.016Z,102278.81
2022-12-18T05:34:24.722Z,102272.88
2022-12-18T05:36:53.720Z,102237.41
2022-12-18T05:39:22.472Z,102252.13
2022-12-18T05:41:51.519Z,102252.41
2022-12-18T05:44:20.574Z,102250.63
2022-12-18T05:46:49.401Z,102253.31
2022-12-18T05:49:18.549Z,102271.22
2022-12-18T05:51:47.948Z,102228.91
2022-12-18T05:54:16.780Z,102274.94
2022-12-18T05:56:48.625Z,102268.59
2022-12-18T05:59:17.852Z,102233.78
2022-12-18T06:01:46.988Z,102250.69
2022-12-18T06:04:17.048Z,102285.50
2022-12-18T06:06:45.810Z,102172.56
2022-12-18T06:09:14.584Z,102268.69
2022-12-18T06:11:43.406Z,102263.63
2022-12-18T06:14:12.226Z,102290.84
2022-12-18T06:16:41.277Z,102265.56
2022-12-18T06:19:10.000Z,102301.53
2022-12-18T06:21:39.017Z,102234.72
2022-12-18T06:24:09.152Z,102260.41
2022-12-18T06:26:41.797Z,102268.16
2022-12-18T06:29:11.271Z,102197.66
2022-12-18T06:31:40.041Z,102289.38
2022-12-18T06:34:09.042Z,102287.84
2022-12-18T06:36:38.107Z,102285.41
2022-12-18T06:39:08.317Z,102257.22
2022-12-18T06:41:38.426Z,102255.44
2022-12-18T06:44:08.359Z,102279.44
2022-12-18T06:46:38.081Z,102234.47
2022-12-18T06:49:06.860Z,102241.69
2022-12-18T06:51:35.690Z,102180.16
2022-12-18T06:54:04.598Z,102236.16
2022-12-18T06:56:33.444Z,102275.84
2022-12-18T06:59:02.637Z,102279.56
2022-12-18T07:01:31.715Z,102265.56
2022-12-18T07:04:01.287Z,102274.59
2022-12-18T07:06:30.001Z,102277.13
2022-12-18T07:08:58.643Z,102244.38
2022-12-18T07:11:27.428Z,102263.03
2022-12-18T07:13:56.221Z,102276.69
2022-12-18T07:16:25.986Z,102246.63
2022-12-18T07:18:57.099Z,102271.97
2022-12-18T07:21:26.703Z,102273.22
2022-12-18T07:23:55.581Z,102301.06
2022-12-18T07:26:25.319Z,102198.97
2022-12-18T07:28:58.007Z,102261.78
2022-12-18T07:31:27.778Z,102301.88
2022-12-18T07:33:59.127Z,102278.50
2022-12-18T07:36:27.930Z,102293.06
2022-12-18T07:38:56.742Z,102271.72
2022-12-18T07:41:25.680Z,102245.66
2022-12-18T07:43:54.273Z,102257.06
2022-12-18T07:46:23.183Z,102293.47
2022-12-18T07:48:51.866Z,102217.13
2022-12-18T07:51:20.964Z,102236.38
2022-12-18T07:53:52.492Z,102262.69
2022-12-18T07:56:30.787Z,102227.38
2022-12-18T07:59:01.520Z,102274.72
2022-12-18T08:01:30.308Z,102270.03
2022-12-18T08:04:00.330Z,102204.13
2022-12-18T08:06:29.033Z,102235.19
2022-12-18T08:08:58.770Z,102164.63
2022-12-18T08:11:29.199Z,102244.91
2022-12-18T08:13:58.646Z,102217.22
2022-12-18T08:16:27.712Z,102214.13
2022-12-18T08:18:56.616Z,102220.34
2022-12-18T08:21:28.397Z,102218.00
2022-12-18T08:23:59.143Z,102256.50
2022-12-18T08:26:30.982Z,102257.97
2022-12-18T08:29:01.409Z,102239.88
2022-12-18T08:31:31.805Z,102268.41
2022-12-18T08:34:00.455Z,102243.31
2022-12-18T08:36:29.347Z,102252.56
2022-12-18T08:38:58.804Z,102239.09
2022-12-18T08:41:28.141Z,102168.97
2022-12-18T08:44:15.923Z,102260.06
2022-12-18T08:46:46.155Z,102252.19
2022-12-18T08:49:14.820Z,102275.03
2022-12-18T08:51:43.804Z,102273.25
2022-12-18T08:54:15.760Z,102244.72
2022-12-18T08:56:44.751Z,102230.41
2022-12-18T08:59:19.547Z,102163.69
2022-12-18T09:01:52.614Z,102240.34
2022-12-18T09:04:21.592Z,102244.44
2022-12-18T09:06:50.881Z,102241.44
2022-12-18T09:09:19.826Z,102249.06
2022-12-18T09:11:48.910Z,102289.97
2022-12-18T09:14:17.672Z,102249.59
2022-12-18T09:16:46.719Z,102289.13
2022-12-18T09:19:15.623Z,102259.53
2022-12-18T09:21:48.000Z,102263.38
2022-12-18T09:24:17.839Z,102261.38
2022-12-18T09:26:47.401Z,102289.59
2022-12-18T09:29:17.849Z,102262.47
2022-12-18T09:31:48.408Z,102300.34
2022-12-18T09:34:22.597Z,102272.31
2022-12-18T09:36:52.447Z,102312.34
2022-12-18T09:39:22.931Z,102265.34
2022-12-18T09:41:59.794Z,102287.59
2022-12-18T09:44:44.500Z,102257.44
2022-12-18T09:47:26.035Z,102286.25
2022-12-18T09:50:02.943Z,102341.66
2022-12-18T09:52:49.459Z,102336.31
2022-12-18T09:55:45.117Z,102325.00
2022-12-18T09:58:34.036Z,102306.13
2022-12-18T10:01:02.651Z,102307.78
2022-12-18T10:03:31.590Z,102301.56
2022-12-18T10:06:17.532Z,102283.00
2022-12-18T10:09:35.368Z,102322.91
2022-12-18T10:12:34.963Z,102317.44
2022-12-18T10:15:15.707Z,102305.09
2022-12-18T10:18:05.979Z,102325.19
2022-12-18T10:20:51.211Z,102270.28
2022-12-18T10:23:29.477Z,102318.31
2022-12-18T10:26:10.146Z,102330.91
2022-12-18T10:28:41.955Z,102320.22
2022-12-18T10:31:19.879Z,102305.19
2022-12-18T10:33:48.857Z,102325.03
2022-12-18T10:36:17.714Z,102285.50
2022-12-18T10:38:46.638Z,102313.16
2022-12-18T10:41:23.736Z,102327.78
2022-12-18T10:44:22.042Z,102339.78
2022-12-18T10:47:00.082Z,102347.03
2022-12-18T10:49:32.216Z,102324.59
2022-12-18T10:52:08.296Z,102338.66
2022-12-18T10:54:38.293Z,102373.50
2022-12-18T10:57:18.474Z,102365.06
2022-12-18T10:59:58.658Z,102371.38
2022-12-18T11:02:37.920Z,102372.47
2022-12-18T11:05:39.155Z,102376.88
2022-12-18T11:08:22.054Z,102319.59
2022-12-18T11:10:50.833Z,102322.81
2022-12-18T11:13:28.635Z,102355.22
2022-12-18T11:15:57.650Z,102338.34
2022-12-18T11:18:36.514Z,102356.38
2022-12-18T11:21:14.426Z,102366.53
2022-12-18T11:23:49.192Z,102356.25
2022-12-18T11:26:18.343Z,102299.16
2022-12-18T11:28:53.555Z,102319.13
2022-12-18T11:31:30.762Z,102320.91
2022-12-18T11:36:57.546Z,102325.84
2022-12-18T11:39:44.338Z,102351.63
2022-12-18T11:42:22.033Z,102357.25
2022-12-18T11:45:02.419Z,102355.28
2022-12-18T11:47:46.342Z,102336.34
2022-12-18T11:50:21.060Z,102315.25
2022-12-18T11:52:55.647Z,102257.28
2022-12-18T11:55:43.822Z,102321.94
2022-12-18T11:58:22.575Z,102347.59
2022-12-18T12:01:18.071Z,102245.38
2022-12-18T12:04:06.510Z,102354.34
2022-12-18T12:07:13.432Z,102349.84
2022-12-18T12:10:16.382Z,102338.38
2022-12-18T12:12:57.888Z,102247.53
2022-12-18T12:15:47.951Z,102357.00
2022-12-18T12:18:25.693Z,102344.97
2022-12-18T12:21:08.628Z,102348.91
2022-12-18T12:24:22.218Z,102339.63
2022-12-18T12:27:16.232Z,102337.75
2022-12-18T12:30:05.724Z,102335.47
2022-12-18T12:33:01.920Z,102338.41
2022-12-18T12:35:49.252Z,102328.59
2022-12-18T12:38:52.506Z,102290.25
2022-12-18T12:41:45.378Z,102287.47
2022-12-18T12:44:22.933Z,102251.50
2022-12-18T12:46:54.645Z,102249.72
2022-12-18T12:49:27.991Z,102300.53
2022-12-18T12:52:31.354Z,102323.56
2022-12-18T12:55:02.968Z,102337.63
2022-12-18T12:57:42.410Z,102323.28
2022-12-18T13:00:17.896Z,102323.91
2022-12-18T13:02:57.151Z,102326.06
2022-12-18T13:05:48.172Z,102300.03
2022-12-18T13:08:35.281Z,102295.19
2022-12-18T13:11:23.625Z,102287.84
2022-12-18T13:13:56.194Z,102287.69
2022-12-18T13:16:27.373Z,102294.44
2022-12-18T13:19:00.424Z,102306.00
2022-12-18T13:21:34.329Z,102298.66
2022-12-18T13:24:31.352Z,102262.06
2022-12-18T13:27:00.653Z,102255.03
2022-12-18T13:29:58.786Z,102298.13
2022-12-18T13:32:28.379Z,102284.94
2022-12-18T13:35:21.059Z,102283.00
2022-12-18T13:37:56.513Z,102257.22
2022-12-18T13:40:40.834Z,102302.31
2022-12-18T13:43:22.759Z,102293.94
2022-12-18T13:46:08.483Z,102285.28
2022-12-18T13:48:40.610Z,102255.31
2022-12-18T13:51:13.351Z,102269.91
2022-12-18T13:53:50.723Z,102238.44
2022-12-18T13:56:23.545Z,102154.72
2022-12-18T13:59:13.644Z,102287.19
2022-12-18T14:01:58.305Z,102174.91
2022-12-18T14:04:40.023Z,102295.22
2022-12-18T14:07:20.121Z,102289.47
2022-12-18T14:10:42.190Z,102240.31
2022-12-18T14:13:03.299Z,102267.34
2022-12-18T14:15:36.840Z,102267.22
2022-12-18T14:18:27.644Z,102250.06
2022-12-18T14:21:02.028Z,102265.94
2022-12-18T14:23:38.301Z,102277.63
2022-12-18T14:26:24.395Z,102269.22
2022-12-18T14:28:53.734Z,102263.38
2022-12-18T14:31:25.797Z,102243.31
2022-12-18T14:33:55.435Z,102207.88
2022-12-18T14:36:29.503Z,102248.47
2022-12-18T14:39:00.119Z,102259.75
2022-12-18T14:41:30.570Z,102211.16
2022-12-18T14:44:09.470Z,102215.91
2022-12-18T14:46:40.883Z,102118.34
2022-12-18T14:49:33.446Z,102193.63
2022-12-18T14:52:28.491Z,102176.75
2022-12-18T14:54:57.463Z,102197.69
2022-12-18T14:57:33.258Z,102095.69
2022-12-18T15:00:18.739Z,102209.31
2022-12-18T15:02:56.980Z,102167.94
2022-12-18T15:05:32.472Z,102212.22
2022-12-18T15:08:03.868Z,102175.66
2022-12-18T15:10:35.468Z,102170.81
2022-12-18T15:13:05.033Z,102188.13
2022-12-18T15:15:39.961Z,102186.84
2022-12-18T15:18:14.655Z,102176.00
2022-12-18T15:20:54.344Z,102156.28
2022-12-18T15:23:28.399Z,102173.16
2022-12-18T15:26:03.146Z,102165.19
2022-12-18T15:28:37.025Z,102177.81
2022-12-18T15:31:18.145Z,102148.91
2022-12-18T15:34:04.859Z,102177.44
2022-12-18T15:36:37.917Z,102160.00
2022-12-18T15:39:07.066Z,102145.31
2022-12-18T15:41:37.375Z,102126.00
2022-12-18T15:44:25.311Z,102189.31
2022-12-18T15:46:54.454Z,102049.69
2022-12-18T15:49:23.158Z,102152.63
2022-12-18T15:51:58.847Z,102191.56
2022-12-18T15:54:46.706Z,102139.06
2022-12-18T15:57:24.834Z,102186.56
2022-12-18T15:59:55.855Z,102145.09
2022-12-18T16:02:25.157Z,102174.38
2022-12-18T16:04:55.566Z,102143.69
2022-12-18T16:07:25.574Z,102163.94
2022-12-18T16:09:57.196Z,102166.22
2022-12-18T16:12:27.424Z,102149.16
2022-12-18T16:14:56.186Z,102172.41
2022-12-18T16:17:24.945Z,102163.75
2022-12-18T16:19:56.125Z,102128.09
2022-12-18T16:22:30.006Z,102073.31
2022-12-18T16:24:59.924Z,102130.56
2022-12-18T16:27:28.644Z,102120.38
2022-12-18T16:29:57.494Z,102129.25
2022-12-18T16:32:26.173Z,102085.44
2022-12-18T16:34:54.976Z,102108.72
2022-12-18T16:37:23.646Z,102124.03
2022-12-18T16:39:52.305Z,102104.88
2022-12-18T16:42:22.340Z,102110.53
2022-12-18T16:44:51.905Z,102022.88
2022-12-18T16:47:20.919Z,102124.94
2022-12-18T16:49:53.684Z,102093.03
2022-12-18T16:52:22.881Z,102110.78
2022-12-18T16:54:51.706Z,102118.28
2022-12-18T16:57:25.172Z,102098.78
2022-12-18T16:59:55.481Z,102119.75
2022-12-18T17:02:28.337Z,102111.31
2022-12-18T17:04:58.920Z,102101.34
2022-12-18T17:07:29.067Z,102076.72
2022-12-18T17:09:58.040Z,102034.31
2022-12-18T17:12:27.678Z,102042.84
2022-12-18T17:14:56.301Z,102003.31
2022-12-18T17:17:25.181Z,102029.22
2022-12-18T17:19:54.119Z,102048.69
2022-12-18T17:22:24.058Z,102041.72
2022-12-18T17:24:54.018Z,102031.63
2022-12-18T17:27:23.295Z,101969.56
2022-12-18T17:29:52.036Z,101965.13
2022-12-18T17:32:20.758Z,102006.94
2022-12-18T17:34:49.757Z,102020.78
2022-12-18T17:37:18.723Z,102017.56
2022-12-18T17:39:47.483Z,102037.25
2022-12-18T17:42:16.647Z,102016.34
2022-12-18T17:44:46.057Z,102027.06
2022-12-18T17:47:15.287Z,101954.00
2022-12-18T17:49:45.058Z,102004.03
2022-12-18T17:52:13.833Z,102033.16
2022-12-18T17:54:44.877Z,101964.84
2022-12-18T17:57:14.106Z,102012.78
2022-12-18T17:59:42.955Z,102022.09
2022-12-18T18:02:13.191Z,102007.56
2022-12-18T18:04:43.045Z,102013.75
2022-12-18T18:07:12.412Z,102032.44
2022-12-18T18:09:41.820Z,102001.22
2022-12-18T18:12:29.643Z,102005.38
2022-12-18T18:14:59.682Z,101987.44
2022-12-18T18:17:28.669Z,102014.69
2022-12-18T18:19:57.829Z,101995.72
2022-12-18T18:22:27.008Z,101976.09
2022-12-18T18:24:56.291Z,101966.69
2022-12-18T18:27:25.246Z,101970.75
2022-12-18T18:29:55.657Z,101951.91
2022-12-18T18:32:24.767Z,101990.75
2022-12-18T18:34:56.244Z,101986.09
2022-12-18T18:37:25.098Z,101999.59
2022-12-18T18:39:54.284Z,101963.72
2022-12-18T18:42:23.991Z,101957.81
2022-12-18T18:44:52.878Z,101995.78
2022-12-18T18:47:22.978Z,101982.25
2022-12-18T18:49:52.397Z,101956.88
2022-12-18T18:52:21.542Z,101954.31
2022-12-18T18:55:11.613Z,101976.72
2022-12-18T18:57:40.535Z,101925.44
2022-12-18T19:00:10.481Z,101939.91
2022-12-18T19:02:42.231Z,101800.59
2022-12-18T19:05:11.242Z,101955.84
2022-12-18T19:07:42.975Z,101917.44
2022-12-18T19:10:11.860Z,101908.09
2022-12-18T19:12:58.831Z,101931.47
2022-12-18T19:15:27.860Z,101907.94
2022-12-18T19:17:57.208Z,101895.97
2022-12-18T19:20:29.735Z,101893.13
2022-12-18T19:22:59.063Z,101893.19
2022-12-18T19:25:38.395Z,101901.03
2022-12-18T19:28:15.983Z,101882.97
2022-12-18T19:30:51.434Z,101874.44
2022-12-18T19:33:43.120Z,101867.84
2022-12-18T19:36:27.103Z,101885.25
2022-12-18T19:38:58.978Z,101882.91
2022-12-18T19:41:31.264Z,101858.53
2022-12-18T19:44:08.185Z,101854.78
2022-12-18T19:46:40.581Z,101824.34
2022-12-18T19:49:17.336Z,101858.91
2022-12-18T19:51:46.869Z,101811.97
2022-12-18T19:54:17.384Z,101817.34
2022-12-18T19:56:47.736Z,101740.25
2022-12-18T19:59:16.764Z,101809.66
2022-12-18T20:01:45.945Z,101765.59
2022-12-18T20:04:15.080Z,101822.41
2022-12-18T20:06:52.587Z,101773.72
2022-12-18T20:09:22.901Z,101778.50
2022-12-18T20:11:52.881Z,101768.84
2022-12-18T20:14:23.452Z,101744.13
2022-12-18T20:16:53.458Z,101775.38
2022-12-18T20:19:23.467Z,101735.44
2022-12-18T20:21:53.047Z,101743.06
2022-12-18T20:24:21.860Z,101700.44
2022-12-18T20:26:50.958Z,101723.75
2022-12-18T20:29:19.598Z,101732.25
2022-12-18T20:31:48.541Z,101704.00
2022-12-18T20:34:17.359Z,101686.19
2022-12-18T20:36:47.109Z,101720.88
2022-12-18T20:39:18.404Z,101599.72
2022-12-18T20:41:47.944Z,101703.53
2022-12-18T20:44:23.193Z,101710.59
2022-12-18T20:46:59.914Z,101670.03
2022-12-18T20:49:31.679Z,101702.44
2022-12-18T20:52:00.604Z,101682.09
2022-12-18T20:54:29.421Z,101673.72
2022-12-18T20:56:58.581Z,101671.59
2022-12-18T20:59:27.401Z,101645.69
2022-12-18T21:01:56.707Z,101671.56
2022-12-18T21:04:26.507Z,101653.84
2022-12-18T21:07:00.774Z,101638.34
2022-12-18T21:09:37.173Z,101681.59
2022-12-18T21:12:40.328Z,101674.97
2022-12-18T21:15:13.883Z,101657.16
2022-12-18T21:17:45.106Z,101634.53
2022-12-18T21:20:17.787Z,101681.94
2022-12-18T21:22:49.982Z,101648.19
2022-12-18T21:25:18.819Z,101626.69
2022-12-18T21:27:47.634Z,101511.84
2022-12-18T21:30:16.382Z,101570.47
2022-12-18T21:32:45.321Z,101589.97
2022-12-18T21:35:14.428Z,101592.06
2022-12-18T21:37:43.872Z,101589.84
2022-12-18T21:40:12.967Z,101572.09
2022-12-18T21:43:00.130Z,101560.25
2022-12-18T21:45:28.745Z,101557.31
2022-12-18T21:47:57.677Z,101513.75
2022-12-18T21:50:27.039Z,101520.91
2022-12-18T21:52:56.279Z,101498.50
2022-12-18T21:55:25.390Z,101518.16
2022-12-18T21:57:55.178Z,101508.38
2022-12-18T22:00:24.140Z,101450.41
2022-12-18T22:03:07.380Z,101461.34
2022-12-18T22:05:42.518Z,101486.97
2022-12-18T22:08:11.226Z,101481.28
2022-12-18T22:10:40.963Z,101518.88
2022-12-18T22:13:09.930Z,101523.09
2022-12-18T22:15:38.609Z,101480.06
2022-12-18T22:18:07.981Z,101473.22
2022-12-18T22:20:36.680Z,101514.72
2022-12-18T22:23:05.995Z,101516.31
2022-12-18T22:25:39.274Z,101459.22
2022-12-18T22:28:26.916Z,101377.91
2022-12-18T22:30:59.291Z,101486.69
2022-12-18T22:33:29.062Z,101440.63
2022-12-18T22:35:57.996Z,101476.06
2022-12-18T22:38:26.773Z,101469.03
2022-12-18T22:40:56.228Z,101446.63
2022-12-18T22:43:25.419Z,101442.28
2022-12-18T22:45:54.139Z,101391.13
2022-12-18T22:48:23.199Z,101372.38
2022-12-18T22:50:51.786Z,101438.91
2022-12-18T22:53:26.188Z,101418.81
2022-12-18T22:56:02.641Z,101416.19
2022-12-18T22:58:31.726Z,101410.16
2022-12-18T23:01:00.838Z,101369.44
2022-12-18T23:03:30.671Z,101379.81
2022-12-18T23:06:10.611Z,101348.22
2022-12-18T23:08:39.285Z,101366.69
2022-12-18T23:11:08.844Z,101352.56
2022-12-18T23:13:38.265Z,101379.81
2022-12-18T23:16:15.620Z,101170.63
2022-12-18T23:18:45.582Z,101307.66
2022-12-18T23:21:19.409Z,101401.69
2022-12-18T23:23:49.213Z,101360.03
2022-12-18T23:26:20.874Z,101354.09
2022-12-18T23:28:51.375Z,101324.03
2022-12-18T23:31:24.469Z,101349.66
2022-12-18T23:33:55.028Z,101340.22
2022-12-18T23:36:24.421Z,101277.22
2022-12-18T23:38:59.537Z,101305.75
2022-12-18T23:41:31.088Z,101292.63
2022-12-18T23:44:01.287Z,101297.41
2022-12-18T23:46:33.703Z,101284.81
2022-12-18T23:49:04.230Z,101275.88
2022-12-18T23:51:35.480Z,101261.25
2022-12-18T23:54:05.536Z,101253.88
2022-12-18T23:56:36.717Z,101247.13
2022-12-18T23:59:05.370Z,101256.84
